Time;durP1;ratioP1;P1;durP2;ratioP2;P2;SDS_P1;SDS_P2;PMS_P1;PMS_P2;Temp;Humidity;BMP_temperature;BMP_pressure;BME280_temperature;BME280_humidity;BME280_pressure;Samples;Min_cycle;Max_cycle;Signal;HPM_P1;HPM_P2
2023/04/09 00:00:19;;;;;;;11.15;9.25;;;;;;;;;;4957078;29;20047;-81
2023/04/09 00:02:49;;;;;;;11.18;8.95;;;;;;;;;;4944804;29;20052;-81
2023/04/09 00:05:17;;;;;;;10.35;8.55;;;;;;;;;;4919170;29;20165;-79
2023/04/09 00:07:44;;;;;;;9.05;8.13;;;;;;;;;;4935317;29;20051;-80
2023/04/09 00:10:11;;;;;;;10.75;9.07;;;;;;;;;;4949825;29;20046;-80
2023/04/09 00:12:39;;;;;;;10.32;8.95;;;;;;;;;;4945613;29;20150;-81
2023/04/09 00:15:07;;;;;;;11.88;9.45;;;;;;;;;;4936334;29;20413;-80
2023/04/09 00:17:39;;;;;;;10.77;9.18;;;;;;;;;;4921044;29;20048;-80
2023/04/09 00:20:07;;;;;;;12.05;9.80;;;;;;;;;;4938177;29;20047;-80
2023/04/09 00:22:34;;;;;;;14.68;9.57;;;;;;;;;;4944203;29;20516;-80
2023/04/09 00:25:02;;;;;;;10.98;8.85;;;;;;;;;;4956657;29;20059;-80
2023/04/09 00:27:30;;;;;;;11.93;9.27;;;;;;;;;;4950701;29;20055;-80
2023/04/09 00:29:57;;;;;;;10.80;9.35;;;;;;;;;;4921614;29;20063;-81
2023/04/09 00:32:24;;;;;;;11.35;9.45;;;;;;;;;;4938584;29;20052;-80
2023/04/09 00:34:52;;;;;;;10.63;8.68;;;;;;;;;;4921323;29;20056;-81
2023/04/09 00:43:10;;;;;;;9.95;8.30;;;;;;;;;;4977754;28;20005;-83
2023/04/09 00:45:38;;;;;;;10.48;8.75;;;;;;;;;;4938538;29;20126;-82
2023/04/09 00:48:06;;;;;;;10.48;8.80;;;;;;;;;;4955701;28;20054;-84
2023/04/09 00:50:34;;;;;;;11.07;8.82;;;;;;;;;;4963622;28;20058;-83
2023/04/09 00:53:01;;;;;;;10.50;9.00;;;;;;;;;;4952352;29;20146;-81
2023/04/09 00:55:30;;;;;;;10.73;9.65;;;;;;;;;;4928624;29;20063;-84
2023/04/09 00:57:57;;;;;;;11.70;8.63;;;;;;;;;;4971059;28;20111;-83
2023/04/09 01:00:26;;;;;;;13.35;8.88;;;;;;;;;;4963477;28;20122;-81
2023/04/09 01:02:56;;;;;;;12.10;8.70;;;;;;;;;;4952445;28;20047;-82
2023/04/09 01:05:44;;;;;;;10.60;9.48;;;;;;;;;;4948067;29;20055;-81
2023/04/09 01:08:30;;;;;;;10.63;8.70;;;;;;;;;;4932898;29;20059;-81
2023/04/09 01:11:05;;;;;;;10.65;8.65;;;;;;;;;;4944994;29;20454;-84
2023/04/09 01:13:48;;;;;;;10.05;8.75;;;;;;;;;;4946897;29;20051;-83
2023/04/09 01:16:17;;;;;;;11.85;9.38;;;;;;;;;;4964096;29;20051;-81
2023/04/09 01:18:57;;;;;;;11.80;9.48;;;;;;;;;;4946569;29;20059;-83
2023/04/09 01:21:28;;;;;;;13.48;9.60;;;;;;;;;;4938418;29;20051;-83
2023/04/09 01:23:59;;;;;;;10.95;8.95;;;;;;;;;;4953807;28;20055;-81
2023/04/09 01:26:51;;;;;;;11.85;9.60;;;;;;;;;;4963373;28;20109;-83
2023/04/09 01:29:22;;;;;;;10.38;8.90;;;;;;;;;;4962168;28;20544;-83
2023/04/09 01:31:50;;;;;;;13.00;10.00;;;;;;;;;;4958002;28;20489;-84
2023/04/09 01:34:18;;;;;;;12.05;9.38;;;;;;;;;;4967272;28;20502;-84
2023/04/09 01:36:49;;;;;;;12.88;9.70;;;;;;;;;;4929736;29;20066;-83
2023/04/09 01:39:17;;;;;;;15.10;10.27;;;;;;;;;;4934999;29;20044;-81
2023/04/09 01:41:46;;;;;;;11.13;9.35;;;;;;;;;;4932030;28;20043;-81
2023/04/09 01:44:13;;;;;;;12.23;9.20;;;;;;;;;;4938440;29;20055;-83
2023/04/09 01:46:41;;;;;;;13.27;10.10;;;;;;;;;;4929442;29;20035;-83
2023/04/09 01:49:09;;;;;;;14.98;10.88;;;;;;;;;;4952253;28;20055;-83
2023/04/09 01:51:37;;;;;;;13.55;10.68;;;;;;;;;;4936770;29;20102;-84
2023/04/09 01:54:04;;;;;;;14.25;10.98;;;;;;;;;;4939475;28;20470;-82
2023/04/09 01:56:42;;;;;;;13.43;10.20;;;;;;;;;;4950533;28;20123;-81
2023/04/09 01:59:09;;;;;;;13.00;10.68;;;;;;;;;;4938059;28;20047;-83
2023/04/09 02:01:47;;;;;;;12.88;10.23;;;;;;;;;;4939365;29;20098;-83
2023/04/09 02:04:30;;;;;;;13.27;9.88;;;;;;;;;;4932318;29;20070;-83
2023/04/09 02:07:06;;;;;;;14.45;10.02;;;;;;;;;;4932077;29;20081;-84
2023/04/09 02:09:36;;;;;;;12.10;9.48;;;;;;;;;;4935742;29;20043;-81
2023/04/09 02:12:05;;;;;;;12.40;9.55;;;;;;;;;;4953682;28;20134;-83
2023/04/09 02:14:33;;;;;;;11.68;9.40;;;;;;;;;;4930978;29;20043;-82
2023/04/09 02:17:00;;;;;;;12.30;9.57;;;;;;;;;;4933408;29;20073;-82
2023/04/09 02:19:44;;;;;;;13.85;10.70;;;;;;;;;;4949129;28;20075;-82
2023/04/09 02:22:13;;;;;;;14.95;10.98;;;;;;;;;;4948954;29;20043;-81
2023/04/09 02:24:41;;;;;;;12.77;10.40;;;;;;;;;;4944146;29;20107;-82
2023/04/09 02:27:08;;;;;;;12.35;9.75;;;;;;;;;;4948143;29;20071;-83
2023/04/09 02:29:38;;;;;;;13.23;10.55;;;;;;;;;;4956986;29;20062;-84
2023/04/09 02:32:05;;;;;;;12.88;10.15;;;;;;;;;;4961116;29;20679;-81
2023/04/09 02:34:33;;;;;;;12.00;9.98;;;;;;;;;;4961520;28;20047;-83
2023/04/09 02:37:00;;;;;;;13.18;10.30;;;;;;;;;;4944195;29;20050;-82
2023/04/09 02:39:28;;;;;;;10.98;9.50;;;;;;;;;;4960825;28;20460;-81
2023/04/09 02:41:56;;;;;;;11.65;9.43;;;;;;;;;;4982306;28;20058;-83
2023/04/09 02:44:26;;;;;;;12.25;9.77;;;;;;;;;;4950318;29;20071;-84
2023/04/09 02:46:54;;;;;;;12.88;10.10;;;;;;;;;;4946675;29;20057;-84
2023/04/09 02:49:21;;;;;;;11.23;9.73;;;;;;;;;;4955897;28;20085;-82
2023/04/09 02:51:49;;;;;;;12.20;9.63;;;;;;;;;;4960425;28;20070;-83
2023/04/09 02:54:16;;;;;;;12.60;9.57;;;;;;;;;;4955737;28;20505;-84
2023/04/09 02:56:44;;;;;;;12.32;9.65;;;;;;;;;;4960693;28;20050;-83
2023/04/09 02:59:11;;;;;;;11.18;9.55;;;;;;;;;;4979363;28;20054;-81
2023/04/09 03:01:39;;;;;;;12.32;9.32;;;;;;;;;;4947275;29;20115;-82
2023/04/09 03:04:06;;;;;;;12.20;9.98;;;;;;;;;;4936336;28;20206;-83
2023/04/09 03:06:34;;;;;;;13.07;10.05;;;;;;;;;;4942468;29;20058;-84
2023/04/09 03:09:01;;;;;;;14.45;10.60;;;;;;;;;;4934373;28;20477;-81
2023/04/09 03:11:29;;;;;;;11.43;9.82;;;;;;;;;;4924814;29;20051;-83
2023/04/09 03:13:56;;;;;;;11.23;9.35;;;;;;;;;;4966827;28;20082;-83
2023/04/09 03:16:25;;;;;;;10.73;9.43;;;;;;;;;;4950682;29;20047;-83
2023/04/09 03:18:52;;;;;;;13.32;10.23;;;;;;;;;;4944731;29;20048;-84
2023/04/09 03:21:21;;;;;;;11.38;9.63;;;;;;;;;;4932908;29;20043;-82
2023/04/09 03:23:50;;;;;;;11.80;9.75;;;;;;;;;;4942996;28;20795;-81
2023/04/09 03:26:17;;;;;;;12.15;9.73;;;;;;;;;;4928716;29;20071;-82
2023/04/09 03:28:47;;;;;;;12.52;10.07;;;;;;;;;;4950398;28;20382;-83
2023/04/09 03:31:16;;;;;;;12.23;10.77;;;;;;;;;;4941285;28;20051;-81
2023/04/09 03:33:45;;;;;;;11.30;9.25;;;;;;;;;;4935891;29;20494;-82
2023/04/09 03:36:13;;;;;;;13.10;10.52;;;;;;;;;;4933271;28;20051;-83
2023/04/09 03:38:56;;;;;;;13.75;10.90;;;;;;;;;;4938908;29;20051;-82
2023/04/09 03:41:34;;;;;;;13.27;10.00;;;;;;;;;;4936805;29;20049;-82
2023/04/09 03:44:05;;;;;;;11.98;9.63;;;;;;;;;;4936720;28;20043;-82
2023/04/09 03:46:43;;;;;;;13.77;10.05;;;;;;;;;;4929557;29;20583;-83
2023/04/09 03:49:14;;;;;;;14.07;10.95;;;;;;;;;;4946990;28;20068;-81
2023/04/09 03:51:43;;;;;;;13.10;10.55;;;;;;;;;;4931193;29;20047;-81
2023/04/09 03:54:12;;;;;;;14.50;9.98;;;;;;;;;;4942248;29;20094;-81
2023/04/09 03:56:40;;;;;;;11.82;10.18;;;;;;;;;;4931348;29;20051;-84
2023/04/09 03:59:11;;;;;;;14.05;10.90;;;;;;;;;;4930180;28;20247;-82
2023/04/09 04:01:41;;;;;;;13.10;10.75;;;;;;;;;;4917353;29;20581;-82
2023/04/09 04:04:09;;;;;;;12.98;10.63;;;;;;;;;;4928515;28;20130;-82
2023/04/09 04:06:47;;;;;;;13.25;10.65;;;;;;;;;;4954447;28;20114;-83
2023/04/09 04:09:25;;;;;;;12.52;10.05;;;;;;;;;;4948141;29;20031;-83
2023/04/09 04:12:00;;;;;;;13.25;9.95;;;;;;;;;;4943575;29;20347;-81
2023/04/09 04:14:44;;;;;;;14.15;9.80;;;;;;;;;;4949810;29;20058;-83
2023/04/09 04:17:24;;;;;;;14.68;10.20;;;;;;;;;;4927960;29;20055;-82
2023/04/09 04:19:53;;;;;;;14.38;10.57;;;;;;;;;;4935046;28;20048;-83
2023/04/09 04:22:22;;;;;;;15.48;11.13;;;;;;;;;;4948096;29;20105;-83
2023/04/09 04:24:55;;;;;;;16.25;11.90;;;;;;;;;;4944554;28;20055;-79
2023/04/09 04:27:23;;;;;;;18.70;12.68;;;;;;;;;;4949998;29;20028;-83
2023/04/09 04:29:50;;;;;;;13.23;9.95;;;;;;;;;;4947629;28;20055;-80
2023/04/09 04:32:41;;;;;;;12.23;10.10;;;;;;;;;;4927173;29;20052;-82
2023/04/09 04:35:10;;;;;;;10.40;8.95;;;;;;;;;;4928782;28;20374;-83
2023/04/09 04:37:39;;;;;;;13.65;10.73;;;;;;;;;;4932922;29;20139;-81
2023/04/09 04:40:07;;;;;;;13.75;10.48;;;;;;;;;;4923073;28;20111;-81
2023/04/09 04:42:39;;;;;;;14.80;10.70;;;;;;;;;;4928959;29;20453;-81
2023/04/09 04:45:11;;;;;;;12.70;11.23;;;;;;;;;;4936204;28;20134;-81
2023/04/09 04:47:51;;;;;;;10.75;9.05;;;;;;;;;;4953549;28;20067;-81
2023/04/09 04:50:18;;;;;;;11.88;10.15;;;;;;;;;;4935610;29;20044;-83
2023/04/09 04:52:59;;;;;;;12.50;9.52;;;;;;;;;;4961638;28;20047;-82
2023/04/09 04:55:31;;;;;;;;;;;;;;;;;;4941687;29;20047;-81
2023/04/09 04:58:00;;;;;;;11.43;9.73;;;;;;;;;;4943169;28;19983;-83
2023/04/09 05:00:35;;;;;;;12.00;9.98;;;;;;;;;;4941971;29;20133;-82
2023/04/09 05:03:03;;;;;;;13.98;11.10;;;;;;;;;;4943583;29;20419;-81
2023/04/09 05:05:49;;;;;;;13.38;10.00;;;;;;;;;;4960515;28;20047;-82
2023/04/09 05:08:20;;;;;;;13.77;10.45;;;;;;;;;;4939008;29;20184;-81
2023/04/09 05:10:50;;;;;;;13.10;10.93;;;;;;;;;;4951163;28;20091;-82
2023/04/09 05:13:19;;;;;;;15.07;10.80;;;;;;;;;;4946214;29;20086;-83
2023/04/09 05:15:46;;;;;;;16.35;12.82;;;;;;;;;;4944354;29;20055;-83
2023/04/09 05:18:14;;;;;;;15.20;13.00;;;;;;;;;;4948823;29;20051;-83
2023/04/09 05:20:42;;;;;;;14.27;10.52;;;;;;;;;;4957788;28;20535;-81
2023/04/09 05:23:11;;;;;;;15.65;11.60;;;;;;;;;;4940879;28;20493;-82
2023/04/09 05:25:47;;;;;;;14.95;11.57;;;;;;;;;;4942643;29;20058;-83
2023/04/09 05:28:33;;;;;;;13.43;11.00;;;;;;;;;;4936274;29;20866;-81
2023/04/09 05:31:11;;;;;;;17.40;11.65;;;;;;;;;;4937187;28;20185;-80
2023/04/09 05:33:46;;;;;;;13.98;10.95;;;;;;;;;;4936796;29;20405;-81
2023/04/09 05:36:20;;;;;;;14.77;11.43;;;;;;;;;;4933148;29;20055;-81
2023/04/09 05:38:47;;;;;;;14.38;11.23;;;;;;;;;;4916846;28;20055;-81
2023/04/09 05:41:14;;;;;;;15.68;11.07;;;;;;;;;;4932426;29;20126;-81
2023/04/09 05:43:58;;;;;;;11.85;9.50;;;;;;;;;;4932560;28;20050;-81
2023/04/09 05:46:27;;;;;;;11.98;10.27;;;;;;;;;;4936305;29;20577;-83
2023/04/09 05:48:55;;;;;;;13.70;11.18;;;;;;;;;;4930728;28;20051;-81
2023/04/09 05:51:25;;;;;;;15.90;11.68;;;;;;;;;;4948011;29;20146;-83
2023/04/09 05:53:53;;;;;;;15.52;12.05;;;;;;;;;;4946757;28;20058;-84
2023/04/09 05:56:22;;;;;;;15.88;11.75;;;;;;;;;;4947644;29;20143;-82
2023/04/09 05:58:53;;;;;;;15.77;13.15;;;;;;;;;;4951745;28;20062;-83
2023/04/09 06:01:20;;;;;;;13.75;11.38;;;;;;;;;;4970400;28;20042;-83
2023/04/09 06:03:48;;;;;;;13.52;11.50;;;;;;;;;;4954112;29;20067;-84
2023/04/09 06:06:16;;;;;;;14.65;12.48;;;;;;;;;;4937645;29;20055;-82
2023/04/09 06:08:44;;;;;;;15.35;12.48;;;;;;;;;;4930926;29;20082;-82
2023/04/09 06:11:12;;;;;;;13.02;11.43;;;;;;;;;;4921614;29;20137;-83
2023/04/09 06:13:40;;;;;;;14.88;11.70;;;;;;;;;;4920073;29;20555;-84
2023/04/09 06:16:08;;;;;;;16.23;12.43;;;;;;;;;;4945721;29;20049;-82
2023/04/09 06:18:36;;;;;;;14.85;12.20;;;;;;;;;;4956356;29;20409;-81
2023/04/09 06:21:05;;;;;;;15.32;12.82;;;;;;;;;;4944195;28;20054;-81
2023/04/09 06:23:33;;;;;;;17.33;13.25;;;;;;;;;;4925065;29;20379;-83
2023/04/09 06:26:00;;;;;;;13.13;11.70;;;;;;;;;;4946565;28;20075;-84
2023/04/09 06:28:28;;;;;;;17.17;13.27;;;;;;;;;;4948703;29;20078;-81
2023/04/09 06:30:55;;;;;;;16.75;12.48;;;;;;;;;;4952731;28;20051;-81
2023/04/09 06:33:23;;;;;;;15.63;13.07;;;;;;;;;;4929560;29;20138;-83
2023/04/09 06:35:50;;;;;;;14.73;12.35;;;;;;;;;;4945644;28;20382;-82
2023/04/09 06:38:18;;;;;;;16.55;12.73;;;;;;;;;;4961128;23;20069;-80
2023/04/09 06:40:45;;;;;;;14.95;12.23;;;;;;;;;;4941707;28;20095;-79
2023/04/09 06:43:13;;;;;;;14.00;11.25;;;;;;;;;;4928969;29;20086;-79
2023/04/09 06:45:48;;;;;;;14.23;12.07;;;;;;;;;;4925254;29;20213;-81
2023/04/09 06:48:15;;;;;;;15.93;11.07;;;;;;;;;;4945428;29;20053;-81
2023/04/09 06:50:43;;;;;;;15.30;12.13;;;;;;;;;;4943640;28;20533;-79
2023/04/09 06:53:15;;;;;;;14.38;11.77;;;;;;;;;;4940205;29;20122;-80
2023/04/09 06:55:45;;;;;;;14.98;11.90;;;;;;;;;;4934587;28;20046;-80
2023/04/09 06:58:12;;;;;;;14.23;10.88;;;;;;;;;;4932257;29;20043;-79
2023/04/09 07:00:42;;;;;;;13.48;10.50;;;;;;;;;;4938456;28;20390;-79
2023/04/09 07:03:09;;;;;;;15.18;12.02;;;;;;;;;;4936106;29;20529;-79
2023/04/09 07:05:37;;;;;;;13.32;10.88;;;;;;;;;;4945733;28;20047;-79
2023/04/09 07:08:04;;;;;;;14.70;11.95;;;;;;;;;;4943077;29;20054;-79
2023/04/09 07:10:32;;;;;;;12.73;10.40;;;;;;;;;;4941452;28;20055;-79
2023/04/09 07:12:59;;;;;;;15.13;10.32;;;;;;;;;;4945397;29;20047;-79
2023/04/09 07:15:27;;;;;;;12.52;11.18;;;;;;;;;;4942194;28;20135;-80
2023/04/09 07:17:56;;;;;;;15.38;12.50;;;;;;;;;;4945520;29;20055;-78
2023/04/09 07:20:24;;;;;;;10.25;9.07;;;;;;;;;;4941825;28;20397;-80
2023/04/09 07:22:51;;;;;;;12.82;10.80;;;;;;;;;;4946583;29;20035;-80
2023/04/09 07:25:20;;;;;;;13.10;11.60;;;;;;;;;;4944516;28;20051;-79
2023/04/09 07:27:48;;;;;;;14.75;11.48;;;;;;;;;;4943068;29;20062;-79
2023/04/09 07:30:16;;;;;;;30.90;23.95;;;;;;;;;;4938676;28;20043;-80
2023/04/09 07:32:43;;;;;;;15.15;11.63;;;;;;;;;;4947242;29;20514;-79
2023/04/09 07:35:11;;;;;;;14.57;11.55;;;;;;;;;;4943719;28;20062;-79
2023/04/09 07:37:38;;;;;;;17.92;11.73;;;;;;;;;;4940556;29;20089;-81
2023/04/09 07:40:07;;;;;;;14.13;11.38;;;;;;;;;;4940143;28;20134;-80
2023/04/09 07:42:36;;;;;;;15.82;13.27;;;;;;;;;;4938439;29;20075;-81
2023/04/09 07:45:05;;;;;;;15.55;11.68;;;;;;;;;;4937299;28;20044;-79
2023/04/09 07:47:32;;;;;;;14.82;11.93;;;;;;;;;;4931147;29;20309;-79
2023/04/09 07:50:00;;;;;;;14.70;12.18;;;;;;;;;;4940812;28;20039;-79
2023/04/09 07:52:27;;;;;;;13.77;12.15;;;;;;;;;;4945873;29;20067;-81
2023/04/09 07:54:55;;;;;;;15.13;12.57;;;;;;;;;;4943395;28;20059;-79
2023/04/09 07:57:22;;;;;;;13.73;11.82;;;;;;;;;;4939389;29;20356;-79
2023/04/09 07:59:49;;;;;;;15.80;12.25;;;;;;;;;;4936159;28;20051;-80
2023/04/09 08:02:17;;;;;;;15.13;11.65;;;;;;;;;;4938770;29;20092;-78
2023/04/09 08:04:44;;;;;;;14.45;11.18;;;;;;;;;;4935652;28;20047;-79
2023/04/09 08:07:12;;;;;;;16.02;13.18;;;;;;;;;;4945234;28;20366;-79
2023/04/09 08:09:41;;;;;;;16.58;12.30;;;;;;;;;;4943176;28;20055;-79
2023/04/09 08:12:08;;;;;;;17.08;12.73;;;;;;;;;;4941209;28;20521;-79
2023/04/09 08:14:36;;;;;;;14.95;12.23;;;;;;;;;;4933160;28;20063;-81
2023/04/09 08:17:03;;;;;;;10.88;9.73;;;;;;;;;;4940644;28;20106;-80
2023/04/09 08:19:31;;;;;;;15.90;12.93;;;;;;;;;;4943148;29;20730;-80
2023/04/09 08:21:58;;;;;;;15.75;12.82;;;;;;;;;;4947231;28;20166;-79
2023/04/09 08:24:26;;;;;;;17.83;13.20;;;;;;;;;;4944892;29;20051;-78
2023/04/09 08:26:53;;;;;;;12.73;10.60;;;;;;;;;;4944436;28;20050;-79
2023/04/09 08:29:21;;;;;;;15.13;12.45;;;;;;;;;;4945262;29;21055;-80
2023/04/09 08:31:48;;;;;;;10.30;9.27;;;;;;;;;;4943330;28;20055;-78
2023/04/09 08:34:19;;;;;;;14.18;11.15;;;;;;;;;;4945291;29;20051;-78
2023/04/09 08:36:48;;;;;;;14.23;11.87;;;;;;;;;;4937503;28;20119;-78
2023/04/09 08:39:20;;;;;;;15.63;12.52;;;;;;;;;;4947309;29;20307;-79
2023/04/09 08:41:47;;;;;;;17.98;13.32;;;;;;;;;;4947402;28;20763;-78
2023/04/09 08:44:15;;;;;;;16.98;12.80;;;;;;;;;;4941916;29;20039;-79
2023/04/09 08:46:43;;;;;;;16.73;12.60;;;;;;;;;;4939803;28;20073;-78
2023/04/09 08:49:11;;;;;;;15.40;12.70;;;;;;;;;;4945410;29;20059;-78
2023/04/09 08:51:39;;;;;;;17.40;13.52;;;;;;;;;;4920754;29;20051;-79
2023/04/09 08:54:06;;;;;;;12.77;10.88;;;;;;;;;;4938720;29;20048;-80
2023/04/09 08:56:34;;;;;;;34.10;30.80;;;;;;;;;;4925604;29;20085;-80
2023/04/09 08:59:01;;;;;;;14.43;12.27;;;;;;;;;;4947986;29;20058;-79
2023/04/09 09:01:30;;;;;;;17.13;14.50;;;;;;;;;;4946797;28;20047;-79
2023/04/09 09:04:02;;;;;;;14.23;11.60;;;;;;;;;;4927967;29;20421;-78
2023/04/09 09:06:31;;;;;;;11.30;10.13;;;;;;;;;;4940155;28;20565;-78
2023/04/09 09:09:01;;;;;;;11.98;10.15;;;;;;;;;;4948540;29;20047;-78
2023/04/09 09:11:32;;;;;;;11.70;9.77;;;;;;;;;;4944721;28;20071;-79
2023/04/09 09:14:01;;;;;;;9.90;8.68;;;;;;;;;;4939864;29;20048;-79
2023/04/09 09:16:29;;;;;;;10.68;9.35;;;;;;;;;;4946471;28;20047;-77
2023/04/09 09:18:56;;;;;;;9.88;8.88;;;;;;;;;;4947351;29;20065;-78
2023/04/09 09:21:26;;;;;;;8.55;7.47;;;;;;;;;;4946793;28;20058;-78
2023/04/09 09:23:53;;;;;;;7.55;6.70;;;;;;;;;;4947421;29;20446;-77
2023/04/09 09:26:21;;;;;;;7.47;6.65;;;;;;;;;;4926583;29;20051;-78
2023/04/09 09:28:49;;;;;;;9.20;8.20;;;;;;;;;;4948795;28;20051;-81
2023/04/09 09:31:19;;;;;;;6.90;6.20;;;;;;;;;;4947624;28;20051;-78
2023/04/09 09:33:47;;;;;;;6.50;5.90;;;;;;;;;;4945128;29;20091;-80
2023/04/09 09:36:15;;;;;;;5.93;5.35;;;;;;;;;;4946618;28;20047;-80
2023/04/09 09:38:55;;;;;;;8.77;6.35;;;;;;;;;;4947821;29;20130;-80
2023/04/09 09:41:26;;;;;;;7.20;6.50;;;;;;;;;;4946721;28;20524;-77
2023/04/09 09:43:53;;;;;;;8.32;6.82;;;;;;;;;;4929425;29;20102;-77
2023/04/09 09:46:21;;;;;;;7.35;6.38;;;;;;;;;;4948427;28;20062;-81
2023/04/09 09:48:49;;;;;;;6.30;5.70;;;;;;;;;;4945538;29;20047;-79
2023/04/09 09:51:18;;;;;;;7.15;6.45;;;;;;;;;;4945826;28;20043;-79
2023/04/09 09:53:47;;;;;;;6.63;6.03;;;;;;;;;;4942236;29;20057;-78
2023/04/09 09:56:18;;;;;;;6.70;6.00;;;;;;;;;;4939750;28;20039;-79
2023/04/09 09:58:52;;;;;;;6.80;6.20;;;;;;;;;;4948316;29;20565;-79
2023/04/09 10:01:21;;;;;;;7.45;6.28;;;;;;;;;;4946986;28;20040;-81
2023/04/09 10:03:50;;;;;;;6.07;5.47;;;;;;;;;;4929944;29;20086;-77
2023/04/09 10:06:18;;;;;;;5.85;5.25;;;;;;;;;;4949240;28;20047;-78
2023/04/09 10:08:48;;;;;;;6.70;5.88;;;;;;;;;;4946907;29;20063;-79
2023/04/09 10:11:16;;;;;;;5.68;5.18;;;;;;;;;;4943880;28;20264;-78
2023/04/09 10:13:48;;;;;;;6.50;5.43;;;;;;;;;;4946780;29;20444;-78
2023/04/09 10:16:17;;;;;;;5.03;3.97;;;;;;;;;;4945799;28;20329;-78
2023/04/09 10:18:45;;;;;;;5.03;4.63;;;;;;;;;;4946085;29;20047;-78
2023/04/09 10:21:16;;;;;;;4.40;4.00;;;;;;;;;;4946249;28;20043;-80
2023/04/09 10:23:49;;;;;;;4.50;4.10;;;;;;;;;;4928134;28;20047;-78
2023/04/09 10:26:20;;;;;;;3.22;3.03;;;;;;;;;;4927469;29;20115;-79
2023/04/09 10:29:04;;;;;;;3.67;3.35;;;;;;;;;;4928105;29;20055;-78
2023/04/09 10:31:45;;;;;;;3.20;3.00;;;;;;;;;;4932875;29;20089;-80
2023/04/09 10:34:16;;;;;;;3.95;3.15;;;;;;;;;;4945443;29;20130;-80
2023/04/09 10:36:44;;;;;;;2.63;2.42;;;;;;;;;;4945248;29;20058;-79
2023/04/09 10:39:12;;;;;;;3.38;3.17;;;;;;;;;;4945130;29;20065;-80
2023/04/09 10:41:41;;;;;;;2.88;2.70;;;;;;;;;;4945765;28;20118;-80
2023/04/09 10:44:25;;;;;;;4.75;4.25;;;;;;;;;;4947756;29;20059;-80
2023/04/09 10:46:54;;;;;;;5.85;5.35;;;;;;;;;;4948157;29;20386;-78
2023/04/09 10:49:25;;;;;;;4.78;4.20;;;;;;;;;;4947962;29;20043;-78
2023/04/09 10:51:53;;;;;;;5.55;5.05;;;;;;;;;;4946405;29;20139;-78
2023/04/09 10:54:33;;;;;;;5.90;5.30;;;;;;;;;;4947996;29;20047;-79
2023/04/09 10:57:06;;;;;;;3.90;3.60;;;;;;;;;;4947568;29;20540;-79
2023/04/09 10:59:35;;;;;;;3.50;3.20;;;;;;;;;;4944837;29;20516;-78
2023/04/09 11:02:06;;;;;;;15.57;14.23;;;;;;;;;;4948167;29;20066;-79
2023/04/09 11:04:51;;;;;;;5.00;3.45;;;;;;;;;;4948776;29;20496;-78
2023/04/09 11:07:21;;;;;;;5.88;5.38;;;;;;;;;;4946372;29;20066;-80
2023/04/09 11:09:48;;;;;;;4.20;3.85;;;;;;;;;;4948251;29;20170;-78
2023/04/09 11:12:15;;;;;;;4.07;3.70;;;;;;;;;;4947180;29;20433;-80
2023/04/09 11:14:43;;;;;;;4.35;3.97;;;;;;;;;;4946372;29;20501;-79
2023/04/09 11:17:12;;;;;;;4.10;3.80;;;;;;;;;;4944381;29;20047;-78
2023/04/09 11:19:39;;;;;;;4.57;4.18;;;;;;;;;;4942034;29;20557;-79
2023/04/09 11:22:06;;;;;;;4.47;4.07;;;;;;;;;;4943350;29;20050;-78
2023/04/09 11:24:45;;;;;;;3.85;3.55;;;;;;;;;;4935136;28;20150;-79
2023/04/09 11:27:13;;;;;;;3.70;3.40;;;;;;;;;;4931007;28;20043;-78
2023/04/09 11:29:41;;;;;;;3.15;2.95;;;;;;;;;;4942496;29;20058;-78
2023/04/09 11:32:08;;;;;;;3.30;3.10;;;;;;;;;;4946065;29;20692;-79
2023/04/09 11:34:37;;;;;;;3.80;3.50;;;;;;;;;;4948176;28;20055;-78
2023/04/09 11:37:08;;;;;;;3.88;3.00;;;;;;;;;;4949055;28;20402;-79
2023/04/09 11:39:39;;;;;;;3.58;3.28;;;;;;;;;;4946981;29;20051;-78
2023/04/09 11:42:06;;;;;;;3.58;3.28;;;;;;;;;;4950904;28;20055;-78
2023/04/09 11:44:34;;;;;;;3.45;3.20;;;;;;;;;;4946507;29;20055;-78
2023/04/09 11:47:02;;;;;;;3.60;3.35;;;;;;;;;;4945649;28;20522;-78
2023/04/09 11:49:29;;;;;;;3.55;3.30;;;;;;;;;;4946741;29;20054;-80
2023/04/09 11:51:57;;;;;;;2.90;2.70;;;;;;;;;;4946828;28;20043;-78
2023/04/09 11:54:25;;;;;;;3.53;3.30;;;;;;;;;;4949820;29;20051;-78
2023/04/09 11:56:54;;;;;;;3.90;3.60;;;;;;;;;;4949269;28;20191;-78
2023/04/09 11:59:22;;;;;;;3.60;3.40;;;;;;;;;;4949378;29;20050;-80
2023/04/09 12:01:50;;;;;;;3.70;3.40;;;;;;;;;;4950260;29;20051;-79
2023/04/09 12:04:21;;;;;;;4.38;4.03;;;;;;;;;;4933551;29;20043;-79
2023/04/09 12:06:49;;;;;;;4.32;3.92;;;;;;;;;;4950289;29;20138;-79
2023/04/09 12:09:16;;;;;;;5.80;3.85;;;;;;;;;;4930323;29;20055;-79
2023/04/09 12:11:44;;;;;;;4.60;4.20;;;;;;;;;;4933529;29;20149;-81
2023/04/09 12:14:16;;;;;;;4.32;3.92;;;;;;;;;;4952267;28;20523;-79
2023/04/09 12:16:43;;;;;;;4.53;4.13;;;;;;;;;;4954014;28;20115;-79
2023/04/09 12:19:12;;;;;;;4.22;3.92;;;;;;;;;;4932684;29;20058;-80
2023/04/09 12:21:49;;;;;;;4.93;4.28;;;;;;;;;;4953859;28;20134;-78
2023/04/09 12:24:18;;;;;;;4.88;4.38;;;;;;;;;;4946789;29;20794;-79
2023/04/09 12:26:46;;;;;;;4.78;4.40;;;;;;;;;;4932678;29;20057;-80
2023/04/09 12:29:18;;;;;;;4.85;4.45;;;;;;;;;;4950204;29;20426;-78
2023/04/09 12:31:46;;;;;;;6.18;5.55;;;;;;;;;;4946387;29;20043;-80
2023/04/09 12:34:13;;;;;;;6.00;4.80;;;;;;;;;;4949483;29;20501;-81
2023/04/09 12:36:41;;;;;;;5.30;4.80;;;;;;;;;;4949223;29;20826;-79
2023/04/09 12:39:09;;;;;;;4.93;4.53;;;;;;;;;;4933317;29;20170;-80
2023/04/09 12:41:36;;;;;;;5.28;4.78;;;;;;;;;;4945220;29;20070;-78
2023/04/09 12:44:06;;;;;;;4.63;4.30;;;;;;;;;;4946136;29;20057;-79
2023/04/09 12:46:33;;;;;;;4.43;4.13;;;;;;;;;;4944170;28;20113;-79
2023/04/09 12:49:01;;;;;;;5.32;4.85;;;;;;;;;;4948689;29;20051;-79
2023/04/09 12:51:28;;;;;;;4.78;4.38;;;;;;;;;;4950129;29;20074;-80
2023/04/09 12:53:55;;;;;;;5.45;5.00;;;;;;;;;;4949027;29;20051;-79
2023/04/09 12:56:23;;;;;;;4.88;4.47;;;;;;;;;;4949515;29;20517;-80
2023/04/09 12:58:51;;;;;;;5.93;5.35;;;;;;;;;;4949524;29;20158;-78
2023/04/09 13:01:18;;;;;;;5.65;5.15;;;;;;;;;;4946232;29;20046;-80
2023/04/09 13:03:46;;;;;;;5.30;4.90;;;;;;;;;;4948652;28;20055;-79
2023/04/09 13:06:14;;;;;;;5.72;5.22;;;;;;;;;;4948961;29;20040;-78
2023/04/09 13:08:42;;;;;;;4.70;4.30;;;;;;;;;;4929616;29;20062;-78
2023/04/09 13:11:09;;;;;;;5.97;5.10;;;;;;;;;;4931885;29;20586;-80
2023/04/09 13:13:36;;;;;;;4.05;3.75;;;;;;;;;;4943721;29;20086;-79
2023/04/09 13:16:04;;;;;;;5.32;4.82;;;;;;;;;;4944981;29;20086;-80
2023/04/09 13:18:31;;;;;;;6.47;4.53;;;;;;;;;;4948952;29;20051;-78
2023/04/09 13:20:58;;;;;;;5.00;4.60;;;;;;;;;;4948464;29;20047;-79
2023/04/09 13:23:26;;;;;;;4.45;4.05;;;;;;;;;;4949234;29;20043;-78
2023/04/09 13:25:53;;;;;;;5.28;4.78;;;;;;;;;;4948424;29;20565;-78
2023/04/09 13:28:20;;;;;;;8.38;7.68;;;;;;;;;;4932178;29;20054;-78
2023/04/09 13:30:48;;;;;;;5.93;5.43;;;;;;;;;;4931769;29;20055;-78
2023/04/09 13:33:15;;;;;;;5.85;5.35;;;;;;;;;;4931793;29;20055;-78
2023/04/09 13:35:43;;;;;;;6.00;5.03;;;;;;;;;;4948314;29;20047;-78
2023/04/09 13:38:10;;;;;;;6.55;5.88;;;;;;;;;;4948536;29;20106;-79
2023/04/09 13:40:37;;;;;;;6.03;5.53;;;;;;;;;;4948888;29;20055;-78
2023/04/09 13:43:05;;;;;;;6.18;5.68;;;;;;;;;;4948806;29;20058;-79
2023/04/09 13:45:32;;;;;;;11.10;10.18;;;;;;;;;;4947865;29;20067;-81
2023/04/09 13:47:59;;;;;;;5.60;5.20;;;;;;;;;;4944520;29;20059;-79
2023/04/09 13:50:27;;;;;;;5.78;5.28;;;;;;;;;;4928812;29;20039;-78
2023/04/09 13:52:54;;;;;;;5.88;5.07;;;;;;;;;;4947799;29;20059;-78
2023/04/09 13:55:22;;;;;;;5.35;4.95;;;;;;;;;;4948298;29;20055;-79
2023/04/09 13:57:49;;;;;;;5.97;5.47;;;;;;;;;;4949068;29;20126;-80
2023/04/09 14:00:18;;;;;;;5.70;5.20;;;;;;;;;;4931395;29;20304;-79
2023/04/09 14:02:46;;;;;;;6.32;5.82;;;;;;;;;;4944744;29;20313;-79
2023/04/09 14:05:14;;;;;;;5.90;5.40;;;;;;;;;;4947662;29;20476;-80
2023/04/09 14:07:41;;;;;;;5.82;5.28;;;;;;;;;;4947627;29;20051;-79
2023/04/09 14:10:09;;;;;;;5.95;5.47;;;;;;;;;;4948523;29;20051;-81
2023/04/09 14:12:39;;;;;;;6.53;5.90;;;;;;;;;;4948507;29;20131;-80
2023/04/09 14:15:07;;;;;;;5.88;5.47;;;;;;;;;;4948130;28;20122;-80
2023/04/09 14:17:35;;;;;;;6.43;5.93;;;;;;;;;;4947459;29;20051;-77
2023/04/09 14:20:02;;;;;;;7.55;6.82;;;;;;;;;;4947901;29;20061;-79
2023/04/09 14:22:30;;;;;;;8.32;7.53;;;;;;;;;;4947536;29;20484;-79
2023/04/09 14:24:58;;;;;;;8.00;7.30;;;;;;;;;;4947933;29;20135;-80
2023/04/09 14:27:26;;;;;;;7.82;7.03;;;;;;;;;;4947887;29;20376;-79
2023/04/09 14:29:53;;;;;;;8.48;7.60;;;;;;;;;;4940124;29;20134;-80
2023/04/09 14:32:21;;;;;;;8.00;7.30;;;;;;;;;;4939076;29;20592;-80
2023/04/09 14:34:48;;;;;;;8.10;7.35;;;;;;;;;;4941249;29;20244;-80
2023/04/09 14:37:17;;;;;;;7.93;7.22;;;;;;;;;;4945234;29;20055;-81
2023/04/09 14:39:44;;;;;;;8.25;7.45;;;;;;;;;;4944760;29;20043;-79
2023/04/09 14:42:11;;;;;;;9.07;7.65;;;;;;;;;;4941815;29;20066;-79
2023/04/09 14:44:39;;;;;;;8.73;7.88;;;;;;;;;;4936171;29;20099;-80
2023/04/09 14:47:06;;;;;;;7.95;7.15;;;;;;;;;;4942550;29;20130;-79
2023/04/09 14:49:34;;;;;;;8.45;7.57;;;;;;;;;;4941831;28;20176;-80